Time;durP1;ratioP1;P1;durP2;ratioP2;P2;SDS_P1;SDS_P2;PMS_P1;PMS_P2;Temp;Humidity;BMP_temperature;BMP_pressure;BME280_temperature;BME280_humidity;BME280_pressure;Samples;Min_cycle;Max_cycle;Signal;HPM_P1;HPM_P2
2022/02/28 00:01:23;;;;;;;33.20;10.90;;;-1.30;99.90;;;;;;5115086;28;20180;-85
2022/02/28 00:03:53;;;;;;;22.97;7.90;;;-1.60;99.90;;;;;;5115723;28;20170;-84
2022/02/28 00:06:19;;;;;;;12.60;6.47;;;-1.60;99.90;;;;;;5113325;28;20182;-85
2022/02/28 00:08:46;;;;;;;16.07;6.23;;;1.20;99.90;;;;;;5113579;28;20202;-84
2022/02/28 00:11:12;;;;;;;12.57;5.83;;;;;;;;;;5096614;28;20188;-84
2022/02/28 00:13:38;;;;;;;15.83;6.00;;;-1.70;99.90;;;;;;5113455;28;20184;-84
2022/02/28 00:16:04;;;;;;;16.90;6.57;;;-0.20;99.90;;;;;;5114780;28;20206;-85
2022/02/28 00:18:30;;;;;;;16.87;6.70;;;-1.70;99.90;;;;;;5114540;28;20636;-85
2022/02/28 00:20:56;;;;;;;19.47;6.70;;;-1.80;99.90;;;;;;5114434;28;20179;-85
2022/02/28 00:23:22;;;;;;;16.00;6.70;;;0.20;99.90;;;;;;5096379;28;20703;-85
2022/02/28 00:25:48;;;;;;;18.73;8.03;;;0.20;99.90;;;;;;5114792;28;20181;-85
2022/02/28 00:28:13;;;;;;;20.87;6.60;;;-2.90;99.90;;;;;;5114864;28;20190;-86
2022/02/28 00:30:39;;;;;;;12.70;7.00;;;0.90;99.90;;;;;;5114745;28;20184;-85
2022/02/28 00:33:05;;;;;;;15.27;7.10;;;-0.20;99.90;;;;;;5114950;28;20178;-86
2022/02/28 00:35:31;;;;;;;23.60;9.43;;;-0.80;99.90;;;;;;5112706;28;20241;-86
2022/02/28 00:37:57;;;;;;;25.60;9.30;;;-1.90;99.90;;;;;;5113344;28;20630;-85
2022/02/28 00:40:23;;;;;;;33.37;12.93;;;-1.50;99.90;;;;;;5114417;28;20201;-86
2022/02/28 00:42:49;;;;;;;35.33;12.70;;;-0.70;99.90;;;;;;5114623;28;20539;-86
2022/02/28 00:45:15;;;;;;;52.03;17.40;;;0.30;99.90;;;;;;5096305;28;20181;-85
2022/02/28 00:47:41;;;;;;;46.70;13.83;;;;;;;;;;5112633;28;20240;-85
2022/02/28 00:50:08;;;;;;;21.07;8.43;;;-1.90;99.90;;;;;;5112882;28;20276;-85
2022/02/28 00:52:35;;;;;;;18.20;6.70;;;-2.00;99.90;;;;;;5113565;28;20184;-86
2022/02/28 00:55:01;;;;;;;16.13;6.23;;;-1.00;99.90;;;;;;5111935;28;20307;-86
2022/02/28 00:57:26;;;;;;;16.80;6.07;;;-2.00;99.90;;;;;;5113017;28;20209;-86
2022/02/28 00:59:53;;;;;;;14.13;6.13;;;;;;;;;;5113990;28;20175;-86
2022/02/28 01:02:20;;;;;;;20.57;7.63;;;-2.00;99.90;;;;;;5112926;28;20630;-86
2022/02/28 01:04:46;;;;;;;15.50;7.17;;;;;;;;;;5095844;28;20690;-86
2022/02/28 01:07:12;;;;;;;18.37;8.57;;;-2.00;99.90;;;;;;5112560;28;20619;-85
2022/02/28 01:09:38;;;;;;;17.57;7.77;;;0.60;99.90;;;;;;5112455;28;20187;-85
2022/02/28 01:12:06;;;;;;;16.03;7.03;;;-2.10;99.90;;;;;;5112582;28;20181;-85
2022/02/28 01:14:32;;;;;;;22.00;8.80;;;-2.10;99.90;;;;;;5112621;28;20230;-85
2022/02/28 01:16:58;;;;;;;23.60;9.80;;;;;;;;;;5114212;28;20180;-85
2022/02/28 01:19:23;;;;;;;27.00;9.20;;;-2.10;99.90;;;;;;5113687;28;20245;-85
2022/02/28 01:21:49;;;;;;;24.83;11.43;;;-1.90;99.90;;;;;;5095878;28;20188;-85
2022/02/28 01:24:15;;;;;;;32.87;13.40;;;-2.20;99.90;;;;;;5113532;28;20623;-85
2022/02/28 01:26:41;;;;;;;35.17;13.50;;;-2.20;99.90;;;;;;5113789;28;20555;-85
2022/02/28 01:29:07;;;;;;;40.00;14.83;;;-1.60;99.90;;;;;;5112995;28;20600;-84
2022/02/28 01:31:33;;;;;;;26.37;9.60;;;-1.40;99.90;;;;;;5095232;28;20214;-85
2022/02/28 01:33:59;;;;;;;26.07;10.43;;;-2.20;99.90;;;;;;5129242;27;20235;-85
2022/02/28 01:36:24;;;;;;;15.43;6.13;;;-2.20;99.90;;;;;;5095930;28;20242;-85
2022/02/28 01:38:50;;;;;;;17.73;7.20;;;0.60;99.90;;;;;;5112173;28;20180;-85
2022/02/28 01:41:16;;;;;;;14.43;5.57;;;-2.30;99.90;;;;;;5113946;28;20177;-85
2022/02/28 01:43:42;;;;;;;14.73;6.10;;;-2.20;99.90;;;;;;5112286;28;20266;-85
2022/02/28 01:46:07;;;;;;;19.17;7.27;;;0.40;99.90;;;;;;5113448;28;20191;-85
2022/02/28 01:48:33;;;;;;;16.43;7.60;;;-0.70;99.90;;;;;;5112040;28;20192;-86
2022/02/28 01:50:59;;;;;;;16.70;7.97;;;-1.20;99.90;;;;;;5113459;28;20653;-85
2022/02/28 01:53:24;;;;;;;18.97;8.27;;;0.40;99.90;;;;;;5113460;28;20177;-85
2022/02/28 01:55:50;;;;;;;17.87;8.50;;;-2.30;99.90;;;;;;5095029;28;20213;-85
2022/02/28 01:58:16;;;;;;;24.47;9.17;;;-1.00;99.90;;;;;;5111952;28;20628;-85
2022/02/28 02:00:42;;;;;;;18.97;8.50;;;-2.40;99.90;;;;;;5129033;27;20628;-86
2022/02/28 02:03:07;;;;;;;21.00;8.17;;;-1.10;99.90;;;;;;5113241;28;20180;-85
2022/02/28 02:05:33;;;;;;;22.33;10.70;;;-2.40;99.90;;;;;;5130713;27;20189;-86
2022/02/28 02:08:03;;;;;;;19.73;10.30;;;-0.20;99.90;;;;;;5117100;28;20617;-85
2022/02/28 02:10:29;;;;;;;27.40;12.03;;;-2.40;99.90;;;;;;5115876;28;20177;-85
2022/02/28 02:12:55;;;;;;;33.43;9.87;;;-2.40;99.90;;;;;;5115474;28;20182;-85
2022/02/28 02:15:21;;;;;;;16.67;6.77;;;-0.70;99.90;;;;;;5098275;28;20207;-85
2022/02/28 02:17:46;;;;;;;18.73;6.27;;;-2.40;99.90;;;;;;5115369;28;20182;-85
2022/02/28 02:20:37;;;;;;;13.67;5.60;;;-0.90;99.90;;;;;;5117295;28;20171;-85
2022/02/28 02:23:08;;;;;;;13.80;5.37;;;-2.50;99.90;;;;;;5115720;28;20170;-85
2022/02/28 02:25:35;;;;;;;8.57;5.37;;;-2.50;99.90;;;;;;5115399;28;20179;-86
2022/02/28 02:28:03;;;;;;;9.70;5.10;;;-0.20;99.90;;;;;;5115524;28;20276;-86
2022/02/28 02:30:30;;;;;;;13.20;6.87;;;-2.50;99.90;;;;;;5116563;28;20262;-86
2022/02/28 02:32:56;;;;;;;18.00;7.57;;;;;;;;;;5116939;28;20291;-85
2022/02/28 02:35:22;;;;;;;14.33;7.20;;;-2.50;99.90;;;;;;5098584;28;20288;-85
2022/02/28 02:37:48;;;;;;;18.07;7.53;;;-2.50;99.90;;;;;;5132569;27;20180;-86
2022/02/28 02:40:13;;;;;;;28.57;8.73;;;-0.70;99.90;;;;;;5115436;28;20622;-85
2022/02/28 02:42:39;;;;;;;23.57;7.50;;;-1.00;99.90;;;;;;5114921;28;20231;-86
2022/02/28 02:45:05;;;;;;;19.97;7.50;;;-0.90;99.90;;;;;;5114837;28;20242;-85
2022/02/28 02:47:31;;;;;;;26.00;10.20;;;-2.60;99.90;;;;;;5115149;28;20187;-85
2022/02/28 02:49:57;;;;;;;32.57;12.47;;;-0.90;99.90;;;;;;5115716;28;20251;-85
2022/02/28 02:52:23;;;;;;;24.23;10.00;;;-2.60;99.90;;;;;;5114974;28;20178;-85
2022/02/28 02:54:48;;;;;;;21.77;8.13;;;-2.60;99.90;;;;;;5114690;28;20216;-85
2022/02/28 02:57:16;;;;;;;16.63;7.67;;;-1.70;99.90;;;;;;5114776;28;20181;-84
2022/02/28 02:59:42;;;;;;;14.10;6.03;;;;;;;;;;5114392;28;20183;-85
2022/02/28 03:02:08;;;;;;;12.93;5.07;;;-2.70;99.90;;;;;;5114398;28;20174;-85
2022/02/28 03:04:33;;;;;;;11.23;5.73;;;-2.70;99.90;;;;;;5097800;28;20191;-85
2022/02/28 03:06:59;;;;;;;11.90;5.83;;;-0.40;99.90;;;;;;5114999;28;20649;-85
2022/02/28 03:09:25;;;;;;;11.40;5.63;;;-0.70;99.90;;;;;;5097697;28;20542;-85
2022/02/28 03:11:50;;;;;;;7.30;4.87;;;-0.10;99.90;;;;;;5114760;28;20174;-85
2022/02/28 03:14:16;;;;;;;8.67;5.13;;;-2.70;99.90;;;;;;5131369;28;20179;-85
2022/02/28 03:16:41;;;;;;;10.27;5.03;;;-2.80;99.90;;;;;;5121711;28;20201;-85
2022/02/28 03:19:07;;;;;;;6.70;4.97;;;;;;;;;;5125213;28;20185;-84
2022/02/28 03:21:33;;;;;;;10.60;5.70;;;-2.80;99.90;;;;;;5115578;28;20178;-85
2022/02/28 03:23:59;;;;;;;14.77;7.30;;;0.10;99.90;;;;;;5097395;28;20516;-84
2022/02/28 03:26:25;;;;;;;11.27;6.13;;;-2.80;99.90;;;;;;5114411;28;20189;-85
2022/02/28 03:28:51;;;;;;;14.70;7.70;;;-0.90;99.90;;;;;;5115592;28;20508;-85
2022/02/28 03:31:16;;;;;;;14.40;7.73;;;-3.20;99.90;;;;;;5114440;28;20588;-85
2022/02/28 03:33:42;;;;;;;19.97;7.33;;;-2.90;99.90;;;;;;5097078;28;20193;-85
2022/02/28 03:36:08;;;;;;;20.43;6.00;;;-0.60;99.90;;;;;;5115970;28;20663;-84
2022/02/28 03:38:33;;;;;;;12.43;6.43;;;-0.50;99.90;;;;;;5138872;28;20191;-86
2022/02/28 03:40:59;;;;;;;11.63;6.03;;;-0.10;99.90;;;;;;5139827;28;20162;-86
2022/02/28 03:43:25;;;;;;;13.67;5.97;;;-2.80;99.90;;;;;;5139640;28;20160;-85
2022/02/28 03:45:51;;;;;;;6.80;4.90;;;-2.90;99.90;;;;;;5139138;28;20175;-85
2022/02/28 03:48:17;;;;;;;14.77;6.03;;;-1.50;99.90;;;;;;5139301;28;20158;-85
2022/02/28 03:50:43;;;;;;;16.53;6.20;;;-1.00;99.90;;;;;;5139534;28;20154;-86
2022/02/28 03:53:09;;;;;;;12.00;6.07;;;-2.90;99.90;;;;;;5138743;28;20219;-84
2022/02/28 03:55:35;;;;;;;16.53;6.50;;;-3.00;99.90;;;;;;5138745;28;20203;-84
2022/02/28 03:58:00;;;;;;;13.73;5.50;;;-1.20;99.90;;;;;;5138741;28;20198;-85
2022/02/28 04:00:26;;;;;;;12.53;5.00;;;-3.00;99.90;;;;;;5139655;28;20167;-84
2022/02/28 04:02:52;;;;;;;9.53;4.97;;;;;;;;;;5139111;28;20165;-85
2022/02/28 04:05:19;;;;;;;12.13;5.80;;;-3.00;99.90;;;;;;5139501;28;20169;-84
2022/02/28 04:07:47;;;;;;;8.63;4.97;;;-3.00;99.90;;;;;;5138692;28;20185;-86
2022/02/28 04:10:13;;;;;;;13.30;4.80;;;-3.00;99.90;;;;;;5139084;28;20169;-84
2022/02/28 04:12:39;;;;;;;10.37;5.20;;;-0.70;99.90;;;;;;5139001;28;20251;-84
2022/02/28 04:15:05;;;;;;;15.23;6.07;;;-1.60;99.90;;;;;;5117439;28;20622;-84
2022/02/28 04:17:31;;;;;;;10.73;6.60;;;-3.10;99.90;;;;;;5117108;28;20634;-83
2022/02/28 04:19:57;;;;;;;16.23;7.60;;;-1.50;99.90;;;;;;5115724;28;20181;-84
2022/02/28 04:22:23;;;;;;;15.93;7.90;;;-3.10;99.90;;;;;;5115624;28;20186;-85
2022/02/28 04:24:49;;;;;;;17.20;7.37;;;-2.70;99.90;;;;;;5097439;28;20677;-85
2022/02/28 04:27:15;;;;;;;13.53;7.00;;;-1.20;99.90;;;;;;5114070;28;20259;-85
2022/02/28 04:29:41;;;;;;;16.53;7.20;;;-1.10;99.90;;;;;;5112980;28;20265;-85
2022/02/28 04:32:07;;;;;;;19.40;6.70;;;-1.60;99.90;;;;;;5113352;28;20242;-85
2022/02/28 04:34:33;;;;;;;13.50;7.13;;;-3.10;99.90;;;;;;5096191;28;20233;-85
2022/02/28 04:36:59;;;;;;;19.50;7.77;;;-0.90;99.90;;;;;;5113917;28;20228;-85
2022/02/28 04:39:25;;;;;;;21.97;7.33;;;-1.80;99.90;;;;;;5095982;28;20526;-85
2022/02/28 04:41:51;;;;;;;21.23;8.43;;;-1.60;99.90;;;;;;5113113;28;20235;-84
2022/02/28 04:44:16;;;;;;;14.00;6.23;;;-3.20;99.90;;;;;;5096493;28;20179;-85
2022/02/28 04:46:42;;;;;;;16.83;6.37;;;-3.20;99.90;;;;;;5096042;28;20541;-85
2022/02/28 04:49:08;;;;;;;20.17;6.90;;;-2.70;99.90;;;;;;5113101;28;20175;-84
2022/02/28 04:51:33;;;;;;;16.27;6.87;;;-3.20;99.90;;;;;;5113060;28;20515;-85
2022/02/28 04:53:59;;;;;;;13.17;5.93;;;-2.80;99.90;;;;;;5113183;28;20178;-85
2022/02/28 04:56:25;;;;;;;11.23;5.63;;;-3.20;99.90;;;;;;5113473;28;20718;-85
2022/02/28 04:58:51;;;;;;;11.87;6.27;;;-1.00;99.90;;;;;;5112777;28;20285;-85
2022/02/28 05:01:16;;;;;;;14.40;6.27;;;-2.00;99.90;;;;;;5113674;28;20211;-84
2022/02/28 05:03:42;;;;;;;11.97;6.43;;;-3.00;99.90;;;;;;5113096;28;20182;-85
2022/02/28 05:06:08;;;;;;;11.07;5.60;;;-3.20;99.90;;;;;;5113393;28;20185;-85
2022/02/28 05:08:33;;;;;;;11.93;5.67;;;-2.80;99.90;;;;;;5114204;28;20546;-85
2022/02/28 05:10:59;;;;;;;12.17;6.00;;;-0.60;99.90;;;;;;5112713;28;20746;-85
2022/02/28 05:13:25;;;;;;;14.03;5.93;;;-0.90;99.90;;;;;;5113048;28;20175;-85
2022/02/28 05:15:51;;;;;;;14.20;7.07;;;-3.20;99.90;;;;;;5095582;28;20234;-86
2022/02/28 05:18:17;;;;;;;16.20;7.73;;;-1.30;99.90;;;;;;5113362;28;20178;-85
2022/02/28 05:20:44;;;;;;;26.97;10.87;;;-1.00;99.90;;;;;;5113798;28;20201;-85
2022/02/28 05:23:09;;;;;;;142.90;41.40;;;-1.30;99.90;;;;;;5112488;28;20698;-85
2022/02/28 05:25:35;;;;;;;131.67;37.93;;;-3.30;99.90;;;;;;5112846;28;20187;-84
2022/02/28 05:28:01;;;;;;;88.67;24.57;;;-1.40;99.90;;;;;;5095508;28;20184;-84
2022/02/28 05:30:27;;;;;;;70.93;19.73;;;-3.20;99.90;;;;;;5095569;28;20181;-85
2022/02/28 05:32:53;;;;;;;101.40;28.13;;;-3.30;99.90;;;;;;5095223;28;20181;-85
2022/02/28 05:35:18;;;;;;;80.33;21.33;;;-1.20;99.90;;;;;;5113160;28;20699;-85
2022/02/28 05:37:44;;;;;;;52.10;15.23;;;-3.20;99.90;;;;;;5112974;28;20193;-85
2022/02/28 05:40:11;;;;;;;58.83;16.77;;;-3.20;99.90;;;;;;5113474;28;20677;-86
2022/02/28 05:42:38;;;;;;;42.57;13.60;;;-3.20;99.90;;;;;;5116601;28;20199;-85
2022/02/28 05:45:05;;;;;;;78.30;22.97;;;-1.80;99.90;;;;;;5117681;28;20191;-84
2022/02/28 05:47:31;;;;;;;93.77;24.80;;;-3.20;99.90;;;;;;5116597;28;20280;-83
2022/02/28 05:49:56;;;;;;;45.03;13.57;;;-3.20;99.90;;;;;;5116304;28;20241;-85
2022/02/28 05:52:22;;;;;;;42.37;12.97;;;-2.20;99.90;;;;;;5117366;28;20236;-84
2022/02/28 05:54:48;;;;;;;51.23;15.17;;;-1.70;99.90;;;;;;5115477;28;20211;-85
2022/02/28 05:57:13;;;;;;;27.30;11.27;;;-1.20;99.90;;;;;;5115708;28;20273;-85
2022/02/28 05:59:39;;;;;;;24.37;8.77;;;-3.00;99.90;;;;;;5114878;28;20262;-85
2022/02/28 06:02:05;;;;;;;16.83;7.57;;;-0.60;99.90;;;;;;5116464;28;20645;-84
2022/02/28 06:04:31;;;;;;;16.70;8.20;;;-0.50;99.90;;;;;;5105200;28;20711;-84
2022/02/28 06:06:57;;;;;;;18.30;8.47;;;-2.90;99.90;;;;;;5110928;27;20184;-85
2022/02/28 06:09:22;;;;;;;24.93;9.80;;;0.00;99.90;;;;;;5114445;28;20727;-85
2022/02/28 06:11:49;;;;;;;14.77;7.07;;;-0.90;99.90;;;;;;5109397;28;20599;-85
2022/02/28 06:14:16;;;;;;;12.80;6.27;;;-0.30;99.90;;;;;;5093090;28;20746;-84
2022/02/28 06:16:41;;;;;;;12.53;6.13;;;-2.70;99.90;;;;;;5104487;28;20270;-85
2022/02/28 06:19:07;;;;;;;17.30;8.23;;;-2.20;99.90;;;;;;5094155;28;20279;-86
2022/02/28 06:21:32;;;;;;;15.03;8.73;;;-1.30;99.90;;;;;;5114344;28;20175;-86
2022/02/28 06:23:58;;;;;;;25.93;12.13;;;-0.10;99.90;;;;;;5085325;28;20204;-85
2022/02/28 06:26:24;;;;;;;19.73;8.13;;;-2.50;99.90;;;;;;5100476;28;20675;-85
2022/02/28 06:28:50;;;;;;;24.93;10.83;;;-2.40;99.90;;;;;;5105497;28;20279;-87
2022/02/28 06:31:16;;;;;;;18.17;7.80;;;-1.60;99.90;;;;;;5103798;28;20274;-86
2022/02/28 06:33:41;;;;;;;12.77;6.40;;;0.10;99.90;;;;;;5112556;27;20282;-86
2022/02/28 06:36:07;;;;;;;17.47;7.83;;;0.10;99.90;;;;;;5104325;27;20221;-87
2022/02/28 06:38:35;;;;;;;16.67;7.73;;;-2.00;99.90;;;;;;5104652;27;20184;-87
2022/02/28 06:41:01;;;;;;;25.63;8.57;;;-2.10;99.90;;;;;;5100784;27;20191;-87
2022/02/28 06:43:26;;;;;;;33.90;11.73;;;0.00;99.90;;;;;;5077812;27;20189;-86
2022/02/28 06:45:54;;;;;;;31.27;11.47;;;-0.70;99.90;;;;;;5102710;27;20232;-87
2022/02/28 06:48:20;;;;;;;17.93;6.90;;;-1.20;99.90;;;;;;5099234;28;20189;-86
2022/02/28 06:50:47;;;;;;;27.70;9.40;;;-1.50;99.90;;;;;;5110610;27;20194;-86
2022/02/28 06:53:18;;;;;;;18.70;7.77;;;-1.50;99.90;;;;;;5092728;27;20704;-87
2022/02/28 06:55:45;;;;;;;28.43;8.60;;;0.00;99.90;;;;;;5104998;28;20648;-88
2022/02/28 06:58:10;;;;;;;31.03;10.50;;;0.50;99.90;;;;;;5107755;28;20189;-88
2022/02/28 07:00:37;;;;;;;22.37;8.37;;;-0.80;99.90;;;;;;5086510;28;20315;-87
2022/02/28 07:03:05;;;;;;;30.60;11.17;;;-1.50;99.90;;;;;;5100159;28;20217;-87
2022/02/28 07:05:31;;;;;;;29.70;11.23;;;-1.30;99.90;;;;;;5105262;28;20637;-86
2022/02/28 07:07:57;;;;;;;31.90;11.97;;;0.30;99.90;;;;;;5126101;28;20173;-86
2022/02/28 07:10:23;;;;;;;26.33;9.57;;;0.50;99.90;;;;;;5124891;28;20193;-87
2022/02/28 07:12:49;;;;;;;17.63;7.83;;;0.40;99.90;;;;;;5086696;28;20194;-86
2022/02/28 07:15:15;;;;;;;23.43;11.73;;;-0.90;99.90;;;;;;5089690;28;20215;-86
2022/02/28 07:17:41;;;;;;;17.90;7.40;;;-1.40;99.90;;;;;;5100471;28;20195;-86
2022/02/28 07:20:08;;;;;;;42.13;16.27;;;0.00;99.90;;;;;;5105981;28;20271;-86
2022/02/28 07:22:34;;;;;;;46.70;19.07;;;-1.70;99.90;;;;;;5112351;27;20674;-86
2022/02/28 07:24:59;;;;;;;31.17;16.10;;;-1.20;99.90;;;;;;5091680;28;20197;-86
2022/02/28 07:27:25;;;;;;;36.20;17.33;;;1.30;99.90;;;;;;5113451;28;20193;-86
2022/02/28 07:29:51;;;;;;;46.00;21.03;;;-0.60;99.90;;;;;;5093423;28;20199;-86
2022/02/28 07:32:17;;;;;;;108.27;43.70;;;-1.00;99.90;;;;;;5109813;28;20202;-87
2022/02/28 07:34:43;;;;;;;75.43;34.70;;;;;;;;;;5112665;28;20242;-86
2022/02/28 07:37:08;;;;;;;49.40;20.63;;;-0.90;99.90;;;;;;5111341;28;20194;-86
2022/02/28 07:39:34;;;;;;;74.07;25.73;;;;;;;;;;5106060;28;20191;-87
2022/02/28 07:42:00;;;;;;;102.70;33.87;;;-0.80;99.90;;;;;;5108766;28;20213;-87
2022/02/28 07:44:27;;;;;;;92.77;30.00;;;-0.70;99.90;;;;;;5110546;28;20180;-88
2022/02/28 07:46:53;;;;;;;108.80;32.57;;;-0.70;99.90;;;;;;5106195;28;20192;-86
2022/02/28 07:49:19;;;;;;;76.83;24.57;;;0.50;99.90;;;;;;5107075;28;20183;-87
2022/02/28 07:51:45;;;;;;;28.20;8.83;;;0.00;99.90;;;;;;5105984;28;20199;-87
2022/02/28 07:54:11;;;;;;;99.00;31.93;;;1.20;99.90;;;;;;5107426;27;20196;-85
2022/02/28 07:56:37;;;;;;;85.57;29.83;;;0.60;99.90;;;;;;5104775;28;20231;-85
2022/02/28 07:59:02;;;;;;;16.00;7.23;;;-0.30;99.90;;;;;;5086539;28;20191;-86
2022/02/28 08:01:28;;;;;;;71.07;25.10;;;-0.40;99.90;;;;;;5098516;28;20680;-86
2022/02/28 08:03:54;;;;;;;51.27;19.10;;;0.70;99.90;;;;;;5097998;28;20227;-87
2022/02/28 08:06:20;;;;;;;50.40;17.47;;;-0.20;99.90;;;;;;5100727;28;20195;-87
2022/02/28 08:08:46;;;;;;;36.80;16.37;;;-0.10;99.90;;;;;;5098358;27;20533;-86
2022/02/28 08:11:12;;;;;;;32.53;13.80;;;0.10;99.90;;;;;;5099847;27;20245;-85
2022/02/28 08:13:37;;;;;;;23.87;9.20;;;2.30;99.90;;;;;;5088790;28;20277;-87
2022/02/28 08:16:03;;;;;;;23.33;10.47;;;0.10;99.90;;;;;;5095274;28;20683;-85
2022/02/28 08:18:29;;;;;;;25.60;10.73;;;-0.10;99.90;;;;;;5094015;28;20192;-85
2022/02/28 08:20:58;;;;;;;39.23;14.50;;;0.10;99.90;;;;;;5107295;27;20662;-86
2022/02/28 08:23:24;;;;;;;24.83;10.47;;;0.20;99.90;;;;;;5111342;28;20188;-85
2022/02/28 08:25:49;;;;;;;30.00;12.33;;;0.60;99.90;;;;;;5114407;28;20286;-89
2022/02/28 08:28:15;;;;;;;17.60;7.33;;;0.40;99.90;;;;;;5114423;28;20175;-88
2022/02/28 08:30:41;;;;;;;22.20;9.43;;;0.50;99.90;;;;;;5092634;28;20256;-88
2022/02/28 08:33:07;;;;;;;20.83;8.83;;;2.50;99.90;;;;;;5094770;28;20178;-89
2022/02/28 08:35:33;;;;;;;14.03;6.43;;;0.60;99.90;;;;;;5111808;28;20243;-87
2022/02/28 08:37:58;;;;;;;24.13;10.37;;;1.80;99.90;;;;;;5113233;28;20231;-88
2022/02/28 08:40:24;;;;;;;16.23;7.40;;;0.70;99.90;;;;;;5095621;28;20196;-85
2022/02/28 08:42:50;;;;;;;19.27;7.43;;;1.60;99.90;;;;;;5095092;28;20544;-88
2022/02/28 08:45:16;;;;;;;13.63;5.10;;;2.20;99.90;;;;;;5112185;28;20185;-88
2022/02/28 08:47:42;;;;;;;9.97;4.67;;;2.80;99.90;;;;;;5112096;28;20226;-88
2022/02/28 08:50:08;;;;;;;31.57;13.87;;;0.80;99.90;;;;;;5094891;28;20182;-88
2022/02/28 08:52:34;;;;;;;32.57;11.40;;;0.90;99.90;;;;;;5111865;28;20228;-88
2022/02/28 08:55:01;;;;;;;19.37;8.70;;;1.10;99.90;;;;;;5094761;28;20215;-90
2022/02/28 08:57:26;;;;;;;13.57;7.10;;;0.90;99.90;;;;;;5112284;28;20530;-88
2022/02/28 08:59:52;;;;;;;18.90;8.17;;;1.10;99.90;;;;;;5114005;28;20265;-89
2022/02/28 09:02:18;;;;;;;18.40;6.77;;;;;;;;;;5113758;28;20185;-87
2022/02/28 09:04:44;;;;;;;20.67;6.60;;;1.10;99.90;;;;;;5113517;28;20174;-88
2022/02/28 09:07:10;;;;;;;11.97;4.83;;;1.20;99.90;;;;;;5113433;28;20501;-88
2022/02/28 09:09:36;;;;;;;16.03;6.20;;;1.30;99.90;;;;;;5114337;28;20174;-89
2022/02/28 09:12:02;;;;;;;10.43;5.73;;;1.30;99.90;;;;;;5114188;28;20177;-89
2022/02/28 09:14:28;;;;;;;14.33;6.20;;;;;;;;;;5113026;28;20174;-88
2022/02/28 09:16:54;;;;;;;16.60;6.67;;;1.50;99.90;;;;;;5116055;28;20215;-88
2022/02/28 09:19:20;;;;;;;25.90;7.53;;;1.50;99.90;;;;;;5117123;28;20178;-87
2022/02/28 09:21:46;;;;;;;21.20;9.27;;;3.20;99.90;;;;;;5115745;28;20210;-89
2022/02/28 09:27:35;;;;;;;14.50;6.70;;;;;;;;;;5282028;22;20277;-90
2022/02/28 09:30:01;;;;;;;17.43;8.03;;;1.90;99.90;;;;;;5056630;28;20180;-86
2022/02/28 09:32:27;;;;;;;19.40;7.13;;;;;;;;;;5025447;28;20645;-87
2022/02/28 09:34:53;;;;;;;11.23;4.93;;;;;;;;;;5035111;28;20225;-87
2022/02/28 09:37:19;;;;;;;15.57;6.03;;;2.00;99.90;;;;;;5019552;28;20185;-85
2022/02/28 09:39:45;;;;;;;12.93;5.90;;;;;;;;;;5019280;28;20187;-86
2022/02/28 09:42:12;;;;;;;6.80;3.40;;;2.30;99.90;;;;;;5034084;28;20543;-84
2022/02/28 09:44:39;;;;;;;10.03;4.03;;;2.40;99.90;;;;;;5019706;28;20202;-88
2022/02/28 09:47:06;;;;;;;15.30;5.53;;;2.60;99.90;;;;;;5001867;28;20180;-89
2022/02/28 09:49:32;;;;;;;7.17;3.90;;;2.70;99.90;;;;;;5002018;28;20623;-86
2022/02/28 09:51:58;;;;;;;5.67;3.27;;;3.30;99.90;;;;;;5017237;28;20235;-86
2022/02/28 09:54:24;;;;;;;6.93;3.90;;;2.60;99.90;;;;;;4999024;28;20189;-86
2022/02/28 09:56:50;;;;;;;9.90;5.10;;;2.70;99.90;;;;;;5016617;28;20215;-87
2022/02/28 09:59:19;;;;;;;5.63;3.10;;;3.60;99.90;;;;;;4999342;28;20587;-87
2022/02/28 10:01:45;;;;;;;9.00;4.30;;;2.80;99.90;;;;;;4998980;28;20544;-87
2022/02/28 10:04:13;;;;;;;5.33;3.53;;;4.30;99.90;;;;;;4999026;28;20277;-86
2022/02/28 10:06:39;;;;;;;10.63;3.80;;;2.90;99.90;;;;;;5016108;28;20221;-86
2022/02/28 10:09:07;;;;;;;13.00;3.40;;;2.80;99.90;;;;;;4999096;28;20188;-85
2022/02/28 10:11:39;;;;;;;12.37;5.20;;;3.00;99.90;;;;;;4998535;28;20249;-86
2022/02/28 10:14:07;;;;;;;7.23;3.20;;;3.10;99.90;;;;;;5016408;28;20272;-86
2022/02/28 10:16:46;;;;;;;5.30;3.23;;;3.30;99.90;;;;;;4998308;28;20248;-86
2022/02/28 10:19:25;;;;;;;6.90;2.87;;;3.20;99.90;;;;;;5029721;28;20175;-88
2022/02/28 10:22:02;;;;;;;11.17;4.20;;;3.20;99.90;;;;;;5051151;28;20166;-86
2022/02/28 10:24:35;;;;;;;6.83;3.63;;;2.70;99.90;;;;;;5042972;28;20162;-86
2022/02/28 10:27:01;;;;;;;8.23;3.90;;;3.30;99.90;;;;;;5042367;28;20233;-87
2022/02/28 10:29:30;;;;;;;7.87;3.30;;;3.50;99.90;;;;;;5059467;28;20145;-86
2022/02/28 10:32:06;;;;;;;8.13;3.37;;;4.00;99.90;;;;;;5042389;28;20159;-87
2022/02/28 10:35:59;;;;;;;6.67;3.43;;;3.80;99.90;;;;;;5042744;28;20163;-87
2022/02/28 10:37:25;;;;;;;13.17;5.47;;;3.80;99.90;;;;;;5058767;28;20174;-86
2022/02/28 10:40:00;;;;;;;10.30;5.47;;;3.80;99.90;;;;;;5042456;28;20181;-85
2022/02/28 10:42:50;;;;;;;13.07;5.63;;;4.10;99.90;;;;;;5034039;28;20165;-86
2022/02/28 10:45:25;;;;;;;28.57;11.00;;;3.90;99.90;;;;;;5030590;28;20203;-87
2022/02/28 10:47:52;;;;;;;6.80;3.27;;;4.20;99.90;;;;;;5049990;28;20164;-84
2022/02/28 10:50:39;;;;;;;5.97;2.93;;;4.10;99.90;;;;;;5035895;28;20190;-86
2022/02/28 10:53:14;;;;;;;6.90;3.33;;;4.30;99.90;;;;;;5053634;28;20238;-87
2022/02/28 10:55:40;;;;;;;8.40;4.23;;;4.30;99.90;;;;;;5035558;28;20596;-86
2022/02/28 10:58:12;;;;;;;10.40;3.93;;;4.30;99.90;;;;;;5054327;28;20215;-86
2022/02/28 11:00:57;;;;;;;5.13;2.70;;;4.30;99.90;;;;;;5052370;28;20185;-87
2022/02/28 11:03:41;;;;;;;6.50;3.60;;;4.10;99.90;;;;;;5024398;28;20197;-88
2022/02/28 11:06:09;;;;;;;9.90;3.90;;;4.10;99.90;;;;;;5019794;28;20278;-87
2022/02/28 11:08:42;;;;;;;12.33;5.00;;;4.10;99.90;;;;;;5019182;28;20530;-86
2022/02/28 11:11:09;;;;;;;9.03;3.63;;;4.50;99.90;;;;;;5019904;28;20214;-88
2022/02/28 11:13:36;;;;;;;7.63;3.90;;;4.30;99.90;;;;;;5018947;28;20220;-87
2022/02/28 11:16:01;;;;;;;6.97;2.80;;;4.50;99.90;;;;;;5018984;28;20208;-87
2022/02/28 11:18:28;;;;;;;5.23;2.93;;;4.30;99.90;;;;;;5018769;28;20542;-87
2022/02/28 11:20:55;;;;;;;12.03;4.63;;;4.70;98.90;;;;;;5032859;28;20189;-86
2022/02/28 11:23:24;;;;;;;8.90;3.77;;;4.30;99.30;;;;;;5012441;28;20242;-87
2022/02/28 11:25:50;;;;;;;8.77;3.93;;;3.10;99.90;;;;;;5005956;28;20260;-87
2022/02/28 11:28:17;;;;;;;11.87;5.03;;;4.40;99.90;;;;;;4990310;28;20274;-86
2022/02/28 11:30:43;;;;;;;7.90;3.50;;;4.80;99.90;;;;;;5011735;28;20653;-87
2022/02/28 11:33:12;;;;;;;7.03;3.43;;;4.60;99.20;;;;;;5017484;28;20189;-88
2022/02/28 11:35:38;;;;;;;16.00;3.97;;;4.20;99.90;;;;;;5017182;28;20218;-88
2022/02/28 11:38:15;;;;;;;9.93;3.80;;;4.40;99.60;;;;;;5016012;28;20275;-87
2022/02/28 11:40:53;;;;;;;6.53;3.30;;;4.00;99.90;;;;;;5016204;28;20188;-87
2022/02/28 11:43:22;;;;;;;10.97;3.80;;;4.00;99.90;;;;;;5035013;28;20199;-88
2022/02/28 11:45:52;;;;;;;7.20;2.93;;;4.00;99.90;;;;;;5016925;28;20194;-87
2022/02/28 11:48:18;;;;;;;9.40;3.93;;;4.00;99.90;;;;;;5034503;28;20187;-90
2022/02/28 11:50:59;;;;;;;12.40;3.60;;;4.00;99.90;;;;;;5033459;28;20616;-86
2022/02/28 11:53:44;;;;;;;8.87;4.20;;;4.00;99.90;;;;;;5033223;28;20237;-87
2022/02/28 11:56:16;;;;;;;11.40;4.83;;;4.20;99.90;;;;;;5024179;28;20215;-88
2022/02/28 11:59:02;;;;;;;7.67;3.07;;;4.60;99.90;;;;;;5032384;28;20191;-87
2022/02/28 12:01:47;;;;;;;10.77;2.70;;;3.90;99.90;;;;;;5034479;28;20617;-86
2022/02/28 12:04:15;;;;;;;9.03;3.53;;;3.80;99.90;;;;;;5033040;28;20187;-88
2022/02/28 12:07:05;;;;;;;9.17;3.70;;;3.80;99.90;;;;;;5016585;28;20192;-87
2022/02/28 12:09:39;;;;;;;6.27;2.70;;;3.90;99.90;;;;;;5017206;28;20219;-86
2022/02/28 12:12:18;;;;;;;6.53;3.20;;;4.00;99.90;;;;;;5024046;28;20271;-88
2022/02/28 12:14:56;;;;;;;8.20;3.40;;;4.20;99.90;;;;;;5014269;28;20257;-85
2022/02/28 12:17:34;;;;;;;5.73;3.23;;;4.10;99.90;;;;;;5014972;28;20183;-87
2022/02/28 12:20:16;;;;;;;9.33;3.60;;;4.20;99.90;;;;;;5014797;28;20179;-89
2022/02/28 12:23:08;;;;;;;8.13;3.17;;;4.40;99.90;;;;;;5014910;28;20524;-92
2022/02/28 12:25:46;;;;;;;8.63;5.17;;;4.50;99.90;;;;;;4997065;28;20272;-88
2022/02/28 12:28:23;;;;;;;6.23;3.60;;;5.00;99.90;;;;;;5014239;28;20238;-88
2022/02/28 12:31:10;;;;;;;8.23;3.70;;;5.00;99.90;;;;;;4997552;28;20181;-90
2022/02/28 12:33:39;;;;;;;6.37;2.87;;;5.30;94.70;;;;;;4997054;28;20707;-89
2022/02/28 12:36:17;;;;;;;7.37;3.53;;;5.40;94.70;;;;;;4996732;28;20223;-90
2022/02/28 12:38:51;;;;;;;19.63;10.23;;;5.40;94.80;;;;;;5002579;28;20245;-90
2022/02/28 12:41:20;;;;;;;14.37;6.73;;;5.40;94.60;;;;;;5014687;28;20189;-91
2022/02/28 12:43:47;;;;;;;18.83;9.10;;;5.30;93.30;;;;;;5017244;28;20250;-90
2022/02/28 12:46:21;;;;;;;13.80;7.33;;;5.20;95.00;;;;;;5032798;28;20198;-87
2022/02/28 12:48:48;;;;;;;14.53;8.43;;;5.00;96.80;;;;;;5032888;28;20177;-88
2022/02/28 12:51:20;;;;;;;16.47;6.60;;;4.80;99.30;;;;;;5001690;28;20280;-89